Time;durP1;ratioP1;P1;durP2;ratioP2;P2;SDS_P1;SDS_P2;PMS_P1;PMS_P2;Temp;Humidity;BMP_temperature;BMP_pressure;BME280_temperature;BME280_humidity;BME280_pressure;Samples;Min_cycle;Max_cycle;Signal;HPM_P1;HPM_P2
2023/12/12 00:04:12;;;;;;;95.68;89.88;;;7.00;84.70;;;;;;12609634;28;20031;-75
2023/12/12 00:10:14;;;;;;;88.22;82.97;;;6.80;85.10;;;;;;12612553;28;20032;-75
2023/12/12 00:16:16;;;;;;;54.72;50.50;;;6.70;84.80;;;;;;12594508;28;20336;-75
2023/12/12 00:22:17;;;;;;;43.15;39.25;;;6.60;85.10;;;;;;12594185;28;20051;-75
2023/12/12 00:28:19;;;;;;;68.88;64.35;;;6.40;85.20;;;;;;12611698;28;20051;-75
2023/12/12 00:34:20;;;;;;;69.25;64.03;;;6.40;85.30;;;;;;12611356;28;20039;-75
2023/12/12 00:40:22;;;;;;;56.60;52.35;;;6.60;85.40;;;;;;12594039;28;20041;-75
2023/12/12 00:46:23;;;;;;;64.82;60.10;;;6.70;85.10;;;;;;12610920;28;20032;-75
2023/12/12 00:52:25;;;;;;;92.72;87.53;;;6.90;84.60;;;;;;12610561;28;20458;-75
2023/12/12 00:58:27;;;;;;;90.40;84.80;;;7.00;84.20;;;;;;12611231;28;20153;-75
2023/12/12 01:04:35;;;;;;;97.45;92.43;;;7.00;83.90;;;;;;12576159;28;20474;-75
2023/12/12 01:10:37;;;;;;;65.50;60.72;;;6.70;84.10;;;;;;12609798;28;20032;-75
2023/12/12 01:16:38;;;;;;;77.63;72.60;;;6.70;84.50;;;;;;12591372;28;20024;-75
2023/12/12 01:22:40;;;;;;;77.95;73.07;;;7.00;84.40;;;;;;12609269;28;20036;-75
2023/12/12 01:28:41;;;;;;;77.20;72.90;;;7.10;84.20;;;;;;12591203;28;20037;-75
2023/12/12 01:34:43;;;;;;;92.50;86.60;;;6.80;84.00;;;;;;12590971;28;20056;-75
2023/12/12 01:40:46;;;;;;;99.47;93.93;;;6.70;84.50;;;;;;12608598;28;20465;-75
2023/12/12 01:46:50;;;;;;;91.22;86.13;;;6.90;84.40;;;;;;12590262;28;20351;-75
2023/12/12 01:52:52;;;;;;;78.40;73.63;;;6.80;84.30;;;;;;12607599;28;20040;-72
2023/12/12 01:58:56;;;;;;;58.15;54.05;;;6.90;84.30;;;;;;12607573;28;20343;-72
2023/12/12 02:04:57;;;;;;;54.25;50.47;;;6.70;84.10;;;;;;12607212;28;20443;-72
2023/12/12 02:10:59;;;;;;;59.92;55.30;;;6.60;84.30;;;;;;12606813;28;20343;-72
2023/12/12 02:17:00;;;;;;;85.43;80.68;;;6.70;84.60;;;;;;12606584;28;20043;-72
2023/12/12 02:23:02;;;;;;;72.05;67.00;;;6.80;84.40;;;;;;12606087;28;20044;-72
2023/12/12 02:29:04;;;;;;;61.53;56.95;;;6.40;84.30;;;;;;12605471;28;20435;-72
2023/12/12 02:35:06;;;;;;;61.45;56.97;;;6.40;84.80;;;;;;12571488;28;20049;-72
2023/12/12 02:41:08;;;;;;;42.40;39.05;;;6.30;84.60;;;;;;12605463;28;20035;-72
2023/12/12 02:47:09;;;;;;;76.70;71.75;;;6.50;84.90;;;;;;12605175;28;20067;-72
2023/12/12 02:53:11;;;;;;;44.60;40.40;;;6.50;84.40;;;;;;12604779;28;20503;-72
2023/12/12 02:59:13;;;;;;;54.17;49.97;;;6.40;84.60;;;;;;12586914;28;20024;-72
2023/12/12 03:05:14;;;;;;;62.28;58.33;;;6.50;84.60;;;;;;12604518;28;20327;-72
2023/12/12 03:11:16;;;;;;;79.03;74.03;;;6.30;84.60;;;;;;12604234;28;20028;-72
2023/12/12 03:17:17;;;;;;;74.85;70.32;;;6.50;84.50;;;;;;12604081;28;20043;-72
2023/12/12 03:23:19;;;;;;;63.45;59.60;;;6.50;84.20;;;;;;12586129;28;20347;-72
2023/12/12 03:29:20;;;;;;;70.82;66.30;;;6.40;83.90;;;;;;12603802;28;20028;-72
2023/12/12 03:35:22;;;;;;;53.50;49.95;;;6.50;84.00;;;;;;12603394;28;20059;-72
2023/12/12 03:41:24;;;;;;;46.50;42.95;;;6.60;83.80;;;;;;12585709;28;20033;-72
2023/12/12 03:47:25;;;;;;;47.70;44.13;;;6.40;83.60;;;;;;12603413;28;20029;-72
2023/12/12 03:53:27;;;;;;;40.05;36.17;;;5.90;83.90;;;;;;12603072;28;20035;-72
2023/12/12 03:59:28;;;;;;;57.53;53.50;;;6.00;84.50;;;;;;12603130;28;20021;-72
2023/12/12 04:05:31;;;;;;;70.88;66.47;;;6.40;84.10;;;;;;12585057;28;20374;-72
2023/12/12 04:11:33;;;;;;;74.07;69.10;;;6.40;83.50;;;;;;12585034;28;20040;-72
2023/12/12 04:17:35;;;;;;;45.35;42.05;;;6.20;84.00;;;;;;12602658;28;20058;-72
2023/12/12 04:23:42;;;;;;;45.05;41.20;;;6.00;83.90;;;;;;12602520;28;20025;-72
2023/12/12 04:29:43;;;;;;;43.83;40.08;;;5.80;84.40;;;;;;12602424;28;20359;-72
2023/12/12 04:35:45;;;;;;;47.05;42.95;;;6.30;84.50;;;;;;12602185;28;20037;-72
2023/12/12 04:41:47;;;;;;;61.85;56.90;;;6.50;84.00;;;;;;12602123;28;20336;-72
2023/12/12 04:47:48;;;;;;;83.82;78.43;;;6.70;83.80;;;;;;12603784;28;20029;-72
2023/12/12 04:53:50;;;;;;;114.38;108.15;;;7.00;83.60;;;;;;12610549;28;20028;-72
2023/12/12 04:59:51;;;;;;;96.10;90.18;;;7.20;83.10;;;;;;12610408;28;20039;-72
2023/12/12 05:05:53;;;;;;;87.40;82.22;;;7.00;83.20;;;;;;12610863;28;20017;-72
2023/12/12 05:11:54;;;;;;;79.25;74.05;;;6.80;83.20;;;;;;12609836;28;20344;-72
2023/12/12 05:17:56;;;;;;;76.03;70.85;;;6.50;83.60;;;;;;12591757;28;20454;-72
2023/12/12 05:23:58;;;;;;;81.80;77.05;;;6.80;83.60;;;;;;12609300;28;20036;-72
2023/12/12 05:29:59;;;;;;;117.93;111.43;;;7.10;83.00;;;;;;12608963;28;20032;-72
2023/12/12 05:36:01;;;;;;;141.20;134.20;;;7.40;83.00;;;;;;12609377;28;20028;-72
2023/12/12 05:42:08;;;;;;;133.02;126.80;;;7.50;82.40;;;;;;12608399;28;20032;-72
2023/12/12 05:48:23;;;;;;;76.00;71.22;;;6.80;82.50;;;;;;12573420;28;20040;-72
2023/12/12 05:54:24;;;;;;;91.85;86.47;;;6.40;83.60;;;;;;12590102;28;20044;-75
2023/12/12 06:00:29;;;;;;;101.40;96.13;;;6.60;83.50;;;;;;12606332;28;20032;-75
2023/12/12 06:06:30;;;;;;;134.05;127.75;;;7.00;83.20;;;;;;12589438;28;20032;-75
2023/12/12 06:12:35;;;;;;;88.28;83.63;;;7.30;82.90;;;;;;12606849;28;20039;-75
2023/12/12 06:18:38;;;;;;;60.00;55.85;;;6.70;80.70;;;;;;12606630;28;20025;-75
2023/12/12 06:24:43;;;;;;;45.90;42.75;;;6.40;83.20;;;;;;12606313;28;20029;-75
2023/12/12 06:30:57;;;;;;;75.45;70.78;;;6.20;82.90;;;;;;12590153;28;20024;-75
2023/12/12 06:36:59;;;;;;;65.25;61.28;;;5.90;83.60;;;;;;12605842;28;20350;-75
2023/12/12 06:43:01;;;;;;;31.85;29.15;;;5.90;83.60;;;;;;12588051;28;20446;-75
2023/12/12 06:49:27;;;;;;;37.75;34.30;;;5.80;83.30;;;;;;12605217;28;20032;-75
2023/12/12 06:55:28;;;;;;;39.58;36.30;;;5.50;83.60;;;;;;12546913;23;20049;-75
2023/12/12 07:01:30;;;;;;;63.42;59.22;;;5.90;84.10;;;;;;12537381;28;20459;-75
2023/12/12 07:07:32;;;;;;;47.95;44.08;;;6.30;83.40;;;;;;12536447;28;20044;-75
2023/12/12 07:13:34;;;;;;;61.70;58.03;;;6.50;82.90;;;;;;12523702;28;20056;-75
2023/12/12 07:19:35;;;;;;;73.57;68.95;;;6.20;82.60;;;;;;12505378;28;20036;-75
2023/12/12 07:25:38;;;;;;;73.97;69.40;;;5.90;83.40;;;;;;12487730;28;20037;-75
2023/12/12 07:31:40;;;;;;;47.65;44.22;;;6.30;83.50;;;;;;12504461;28;20036;-75
2023/12/12 07:37:41;;;;;;;51.40;47.28;;;6.30;82.90;;;;;;12504378;28;20056;-75
2023/12/12 07:43:43;;;;;;;57.30;53.47;;;6.00;83.20;;;;;;12504266;28;20033;-75
2023/12/12 07:49:45;;;;;;;80.68;75.55;;;5.90;83.60;;;;;;12475102;28;20029;-75
2023/12/12 07:55:46;;;;;;;37.40;34.17;;;5.90;84.10;;;;;;12553393;28;20028;-75
2023/12/12 08:01:48;;;;;;;53.75;50.30;;;6.00;83.80;;;;;;12535597;28;20448;-75
2023/12/12 08:07:55;;;;;;;50.33;46.60;;;6.00;84.00;;;;;;12535383;28;20056;-75
2023/12/12 08:14:09;;;;;;;91.47;86.07;;;6.20;84.10;;;;;;12535174;28;20037;-75
2023/12/12 08:20:11;;;;;;;100.82;95.05;;;6.70;84.10;;;;;;12553632;28;20259;-75
2023/12/12 08:26:16;;;;;;;110.63;103.93;;;7.00;83.50;;;;;;12525776;28;20443;-75
2023/12/12 08:32:17;;;;;;;145.68;138.32;;;7.20;83.10;;;;;;12544181;28;20025;-75
2023/12/12 08:38:19;;;;;;;114.60;107.95;;;7.30;83.10;;;;;;12561676;28;20032;-75
2023/12/12 08:44:21;;;;;;;195.82;186.07;;;7.50;83.00;;;;;;12561513;28;20036;-75
2023/12/12 08:50:22;;;;;;;168.20;159.87;;;7.70;82.70;;;;;;12543545;28;20048;-75
2023/12/12 08:56:25;;;;;;;145.32;138.35;;;7.90;82.90;;;;;;12560838;28;20029;-75
2023/12/12 09:02:30;;;;;;;76.93;72.38;;;8.10;82.90;;;;;;12560636;28;20032;-74
2023/12/12 09:08:31;;;;;;;82.47;77.53;;;8.20;82.90;;;;;;12542615;28;20041;-74
2023/12/12 09:14:33;;;;;;;47.80;44.30;;;8.20;83.20;;;;;;12542034;28;20454;-75
2023/12/12 09:20:35;;;;;;;32.78;29.75;;;8.40;83.30;;;;;;12559655;28;20021;-75
2023/12/12 09:26:37;;;;;;;25.73;23.27;;;8.60;83.50;;;;;;12559518;28;20025;-74
2023/12/12 09:32:38;;;;;;;38.95;35.95;;;8.60;83.20;;;;;;12558942;28;20348;-74
2023/12/12 09:38:40;;;;;;;60.15;56.33;;;8.10;83.50;;;;;;12540972;28;20040;-74
2023/12/12 09:44:43;;;;;;;73.63;69.32;;;8.00;84.30;;;;;;12541394;28;20032;-74
2023/12/12 09:50:49;;;;;;;147.35;140.68;;;7.90;84.20;;;;;;12508499;28;20040;-74
2023/12/12 09:56:52;;;;;;;196.65;187.73;;;7.70;84.70;;;;;;12540296;28;20040;-75
2023/12/12 10:02:57;;;;;;;174.65;166.52;;;7.70;84.60;;;;;;12557745;28;20032;-75
2023/12/12 10:08:59;;;;;;;180.32;172.07;;;7.50;84.90;;;;;;12539792;28;20044;-75
2023/12/12 10:15:01;;;;;;;209.27;199.70;;;7.70;85.20;;;;;;12539350;28;20029;-75
2023/12/12 10:21:15;;;;;;;185.63;177.43;;;7.70;84.80;;;;;;12538973;28;20040;-75
2023/12/12 10:27:20;;;;;;;156.80;148.80;;;7.60;85.00;;;;;;12556317;28;20048;-75
2023/12/12 10:33:22;;;;;;;187.73;179.00;;;7.50;85.00;;;;;;12556252;28;20044;-75
2023/12/12 10:39:30;;;;;;;199.50;190.65;;;7.50;85.30;;;;;;12555944;28;20036;-75
2023/12/12 10:45:33;;;;;;;212.18;202.55;;;7.60;85.30;;;;;;12555104;28;20033;-75
2023/12/12 10:51:35;;;;;;;130.77;125.07;;;7.70;85.30;;;;;;12555947;28;20450;-75
2023/12/12 10:57:39;;;;;;;187.40;178.90;;;7.80;85.40;;;;;;12555397;28;20025;-75
2023/12/12 11:03:40;;;;;;;128.05;121.90;;;7.90;85.60;;;;;;12537338;28;20036;-74
2023/12/12 11:09:43;;;;;;;104.38;99.30;;;8.00;85.30;;;;;;12537157;28;20045;-75
2023/12/12 11:15:45;;;;;;;115.72;110.05;;;8.00;85.40;;;;;;12537159;28;20060;-75
2023/12/12 11:21:49;;;;;;;120.20;114.55;;;7.90;85.60;;;;;;12554307;28;20032;-75
2023/12/12 11:27:52;;;;;;;62.28;58.67;;;8.00;86.00;;;;;;12554095;28;20032;-74
2023/12/12 11:34:10;;;;;;;60.50;56.22;;;8.30;86.10;;;;;;12536091;28;20044;-74
2023/12/12 11:40:13;;;;;;;22.30;19.92;;;8.60;86.40;;;;;;12535918;28;20163;-74
2023/12/12 11:46:25;;;;;;;22.75;19.77;;;9.00;85.80;;;;;;12535736;28;20048;-74
2023/12/12 11:52:39;;;;;;;21.75;19.23;;;9.10;85.90;;;;;;12535332;28;20048;-74
2023/12/12 11:58:40;;;;;;;26.33;21.67;;;9.20;85.80;;;;;;12558752;28;20021;-74
2023/12/12 12:04:42;;;;;;;21.27;18.05;;;9.10;85.30;;;;;;12545603;28;20037;-74
2023/12/12 12:10:57;;;;;;;26.33;23.67;;;9.10;85.00;;;;;;12563051;28;20478;-74
2023/12/12 12:17:00;;;;;;;22.27;16.95;;;9.30;85.10;;;;;;12562793;28;20029;-73
2023/12/12 12:23:07;;;;;;;22.10;15.70;;;9.50;85.40;;;;;;12562526;28;20367;-73
2023/12/12 12:29:09;;;;;;;16.33;14.45;;;9.70;85.70;;;;;;12544513;28;20029;-74
2023/12/12 12:35:11;;;;;;;16.33;14.63;;;9.90;86.00;;;;;;12562036;28;20043;-74
2023/12/12 12:41:23;;;;;;;17.70;14.88;;;10.30;85.90;;;;;;12561707;28;20337;-74
2023/12/12 12:47:25;;;;;;;16.25;12.88;;;10.50;85.10;;;;;;12561230;28;20040;-72
2023/12/12 12:53:26;;;;;;;18.98;16.45;;;10.40;85.20;;;;;;12560933;28;20037;-72
2023/12/12 12:59:28;;;;;;;17.73;15.13;;;10.30;85.50;;;;;;12560830;28;20032;-72
2023/12/12 13:05:30;;;;;;;15.32;10.90;;;10.30;85.70;;;;;;12542739;28;20044;-72
2023/12/12 13:11:31;;;;;;;16.92;13.32;;;10.50;85.90;;;;;;12559424;28;20028;-72
2023/12/12 13:17:33;;;;;;;14.77;12.73;;;10.60;85.30;;;;;;12559802;28;20021;-72
2023/12/12 13:23:35;;;;;;;14.30;12.45;;;10.70;85.40;;;;;;12559605;28;20039;-72
2023/12/12 13:29:37;;;;;;;23.15;18.38;;;10.80;85.10;;;;;;12525061;28;20367;-72
2023/12/12 13:35:38;;;;;;;17.20;13.05;;;10.70;84.60;;;;;;12541259;28;20444;-72
2023/12/12 13:41:40;;;;;;;15.32;13.40;;;10.70;84.20;;;;;;12558891;28;20029;-72
2023/12/12 13:47:42;;;;;;;18.40;13.70;;;10.70;84.50;;;;;;12558643;28;20028;-72
2023/12/12 13:53:43;;;;;;;17.48;12.65;;;10.80;84.20;;;;;;12558207;28;20028;-72
2023/12/12 13:59:45;;;;;;;14.68;11.10;;;10.70;84.20;;;;;;12540283;28;20359;-72
2023/12/12 14:05:47;;;;;;;20.52;11.02;;;10.70;84.30;;;;;;12540067;28;20360;-72
2023/12/12 14:11:48;;;;;;;11.82;9.10;;;10.70;84.60;;;;;;12557429;28;20036;-72
2023/12/12 14:17:50;;;;;;;11.73;8.48;;;10.80;84.70;;;;;;12557193;28;20424;-72
2023/12/12 14:23:52;;;;;;;11.85;10.18;;;10.70;84.90;;;;;;12555971;28;20040;-72
2023/12/12 14:29:54;;;;;;;12.50;10.65;;;10.60;84.90;;;;;;12556585;28;20052;-72
2023/12/12 14:35:56;;;;;;;14.70;11.48;;;10.50;85.40;;;;;;12538295;28;20367;-72
2023/12/12 14:41:57;;;;;;;11.63;10.30;;;10.50;85.50;;;;;;12555897;28;20033;-72
2023/12/12 14:47:59;;;;;;;18.13;12.57;;;10.30;85.70;;;;;;12538362;28;20043;-74
2023/12/12 14:54:03;;;;;;;16.85;12.63;;;10.20;85.90;;;;;;12543613;23;20055;-74
2023/12/12 15:00:13;;;;;;;14.63;12.18;;;10.20;86.30;;;;;;12648103;27;20480;-73
2023/12/12 15:06:15;;;;;;;15.93;12.18;;;10.30;86.40;;;;;;12646795;28;20341;-74
2023/12/12 15:12:17;;;;;;;18.42;12.35;;;10.20;86.40;;;;;;12645194;28;20040;-73
2023/12/12 15:18:18;;;;;;;18.35;15.20;;;10.20;86.70;;;;;;12646160;28;20048;-73
2023/12/12 15:24:20;;;;;;;16.80;15.02;;;10.40;86.80;;;;;;12645871;28;20029;-74
2023/12/12 15:30:22;;;;;;;16.48;12.90;;;10.60;86.50;;;;;;12646178;28;20028;-73
2023/12/12 15:36:23;;;;;;;14.85;10.82;;;10.40;86.10;;;;;;12644681;28;20463;-74
2023/12/12 15:42:25;;;;;;;14.82;12.73;;;10.20;86.50;;;;;;12645727;28;20025;-73
2023/12/12 15:48:27;;;;;;;12.70;11.30;;;10.20;86.70;;;;;;12645429;28;20360;-74
2023/12/12 15:54:29;;;;;;;17.20;14.52;;;10.10;86.50;;;;;;12648136;28;20360;-73
2023/12/12 16:00:31;;;;;;;16.08;14.02;;;10.00;86.80;;;;;;12677231;28;20024;-73
2023/12/12 16:06:33;;;;;;;15.50;12.82;;;10.20;86.70;;;;;;12689617;28;20447;-73
2023/12/12 16:12:35;;;;;;;16.73;14.05;;;10.40;86.30;;;;;;12661160;28;20054;-73
2023/12/12 16:18:39;;;;;;;17.35;15.52;;;10.40;86.10;;;;;;12661607;28;20134;-73
2023/12/12 16:24:42;;;;;;;18.77;16.85;;;10.50;86.10;;;;;;12660452;28;20344;-74
2023/12/12 16:30:43;;;;;;;18.88;15.52;;;10.70;85.80;;;;;;12660234;28;20051;-71
2023/12/12 16:36:45;;;;;;;21.10;17.23;;;10.70;85.40;;;;;;12659863;28;20036;-71
2023/12/12 16:42:47;;;;;;;21.10;17.92;;;10.60;85.10;;;;;;12659685;28;20024;-71
2023/12/12 16:48:49;;;;;;;22.85;19.77;;;10.40;85.50;;;;;;12659376;28;20388;-71
2023/12/12 16:54:52;;;;;;;24.50;21.48;;;10.20;85.70;;;;;;12658649;28;20348;-71
2023/12/12 17:00:53;;;;;;;28.05;20.88;;;10.50;85.40;;;;;;12640675;28;20028;-71
2023/12/12 17:06:55;;;;;;;27.23;24.38;;;10.60;85.10;;;;;;12658489;28;20028;-71
2023/12/12 17:12:58;;;;;;;29.80;25.08;;;10.70;84.70;;;;;;12658216;28;20032;-71
2023/12/12 17:19:00;;;;;;;22.25;19.90;;;10.60;84.60;;;;;;12656887;28;20428;-73
2023/12/12 17:25:02;;;;;;;28.65;25.63;;;10.40;84.70;;;;;;12657597;28;20035;-73
2023/12/12 17:31:04;;;;;;;37.13;26.63;;;10.00;85.20;;;;;;12657248;28;20047;-74
2023/12/12 17:37:07;;;;;;;31.05;27.30;;;10.10;85.70;;;;;;12622503;28;20036;-73
2023/12/12 17:43:09;;;;;;;31.98;28.30;;;10.30;85.60;;;;;;12638788;28;20028;-73
2023/12/12 17:49:11;;;;;;;44.08;34.17;;;10.50;85.10;;;;;;12656344;28;20035;-73
2023/12/12 17:55:14;;;;;;;45.88;35.58;;;10.60;85.20;;;;;;12656074;28;20372;-72
2023/12/12 18:01:16;;;;;;;39.20;34.70;;;10.60;85.00;;;;;;12621656;28;20035;-71
2023/12/12 18:07:18;;;;;;;46.67;38.95;;;10.50;84.80;;;;;;12655127;28;20031;-71
2023/12/12 18:13:20;;;;;;;45.63;38.75;;;10.40;84.90;;;;;;12655265;28;20032;-71
2023/12/12 18:19:22;;;;;;;44.97;38.55;;;10.50;85.20;;;;;;12636890;28;20352;-71
2023/12/12 18:25:24;;;;;;;45.15;35.53;;;10.60;85.20;;;;;;12628140;28;20341;-72
2023/12/12 18:31:28;;;;;;;42.97;34.88;;;10.60;85.00;;;;;;12619919;28;20036;-71
2023/12/12 18:37:34;;;;;;;38.17;34.03;;;10.70;85.20;;;;;;12604191;28;20032;-72
2023/12/12 18:43:36;;;;;;;46.42;38.83;;;10.60;84.90;;;;;;12604336;28;20237;-71
2023/12/12 18:49:39;;;;;;;48.63;38.38;;;10.30;85.10;;;;;;12619509;28;20041;-71
2023/12/12 18:55:40;;;;;;;46.15;37.30;;;10.40;85.50;;;;;;12602722;28;20037;-71
2023/12/12 19:01:42;;;;;;;40.30;32.47;;;10.30;85.30;;;;;;12585807;28;20035;-71
2023/12/12 19:07:44;;;;;;;36.17;31.83;;;10.40;85.40;;;;;;12603533;28;20028;-71
2023/12/12 19:13:46;;;;;;;39.08;34.80;;;10.50;85.50;;;;;;12603383;28;20043;-71
2023/12/12 19:19:48;;;;;;;38.63;32.67;;;10.40;85.50;;;;;;12603115;28;20344;-71
2023/12/12 19:25:50;;;;;;;35.03;31.27;;;10.60;85.60;;;;;;12602473;28;20047;-71
2023/12/12 19:31:52;;;;;;;31.73;28.60;;;10.60;85.30;;;;;;12602881;28;20024;-71
2023/12/12 19:37:53;;;;;;;32.63;28.95;;;10.40;85.30;;;;;;12602589;28;20040;-72
2023/12/12 19:43:55;;;;;;;37.92;31.85;;;10.30;85.50;;;;;;12605697;28;20361;-71
2023/12/12 19:49:57;;;;;;;38.10;31.67;;;10.30;85.60;;;;;;12611811;28;20037;-71
2023/12/12 19:55:59;;;;;;;32.08;28.80;;;10.30;85.70;;;;;;12611327;28;20024;-71
2023/12/12 20:02:02;;;;;;;40.80;34.33;;;10.40;85.40;;;;;;12611259;28;20043;-71
2023/12/12 20:08:03;;;;;;;35.85;29.67;;;10.60;85.30;;;;;;12611048;28;20314;-72
2023/12/12 20:14:05;;;;;;;32.50;29.02;;;10.60;85.00;;;;;;12593463;28;20051;-71
2023/12/12 20:20:08;;;;;;;32.63;28.77;;;10.40;85.20;;;;;;12610338;28;20051;-71
2023/12/12 20:26:10;;;;;;;32.45;28.88;;;10.40;85.20;;;;;;12610201;28;20037;-71
2023/12/12 20:32:12;;;;;;;35.92;32.05;;;10.10;85.30;;;;;;12609905;28;20059;-71
2023/12/12 20:38:13;;;;;;;35.28;31.48;;;10.00;85.80;;;;;;12591913;28;20357;-71
2023/12/12 20:44:15;;;;;;;47.85;35.33;;;10.20;85.80;;;;;;12609374;28;20031;-71
2023/12/12 20:50:17;;;;;;;32.53;29.23;;;10.30;85.50;;;;;;12609156;28;20035;-71
2023/12/12 20:56:19;;;;;;;38.30;31.80;;;10.20;85.30;;;;;;12608541;28;20437;-71
2023/12/12 21:02:20;;;;;;;40.03;34.63;;;10.20;85.70;;;;;;12590642;28;20032;-71
2023/12/12 21:08:22;;;;;;;44.67;35.78;;;10.20;85.70;;;;;;12590908;28;20047;-71
2023/12/12 21:14:24;;;;;;;35.38;31.85;;;10.40;85.70;;;;;;12607992;28;20040;-71
2023/12/12 21:20:26;;;;;;;39.10;34.38;;;10.50;85.40;;;;;;12607701;28;20036;-72
2023/12/12 21:26:27;;;;;;;37.55;33.58;;;10.40;85.60;;;;;;12607477;28;20032;-71
2023/12/12 21:32:29;;;;;;;36.97;31.52;;;10.40;85.50;;;;;;12607047;28;20032;-71
2023/12/12 21:38:32;;;;;;;44.22;35.53;;;10.20;85.60;;;;;;12622440;28;20036;-71
2023/12/12 21:44:34;;;;;;;46.33;38.33;;;10.00;86.00;;;;;;12606481;28;20036;-71
2023/12/12 21:50:36;;;;;;;35.58;31.95;;;10.20;85.90;;;;;;12621882;28;20460;-71
2023/12/12 21:56:38;;;;;;;37.08;33.38;;;10.20;85.70;;;;;;12605729;28;20028;-71
2023/12/12 22:02:40;;;;;;;31.73;28.42;;;10.30;85.60;;;;;;12605604;28;20456;-71
2023/12/12 22:08:41;;;;;;;38.00;33.88;;;10.20;85.60;;;;;;12604844;28;20364;-71
2023/12/12 22:14:43;;;;;;;41.10;33.55;;;9.90;85.70;;;;;;12605042;28;20033;-71
2023/12/12 22:20:45;;;;;;;35.88;31.98;;;9.80;86.10;;;;;;12604834;28;20361;-71
2023/12/12 22:26:46;;;;;;;33.85;29.50;;;9.70;86.10;;;;;;12587469;28;20047;-70
2023/12/12 22:32:51;;;;;;;32.25;26.67;;;9.70;86.10;;;;;;12604614;28;20028;-70
2023/12/12 22:38:53;;;;;;;36.88;30.60;;;9.60;86.20;;;;;;12604204;28;20037;-70
2023/12/12 22:44:55;;;;;;;32.85;29.17;;;9.60;86.50;;;;;;12586082;28;20028;-70
2023/12/12 22:50:57;;;;;;;41.65;37.22;;;9.90;86.40;;;;;;12603948;28;20034;-74
2023/12/12 22:56:59;;;;;;;36.03;31.85;;;10.10;86.50;;;;;;12633905;23;20040;-73
2023/12/12 23:03:03;;;;;;;37.10;31.63;;;10.20;86.40;;;;;;12653822;28;20024;-74
2023/12/12 23:09:05;;;;;;;36.30;32.47;;;10.20;86.30;;;;;;12653757;28;20032;-73
2023/12/12 23:15:07;;;;;;;35.65;31.85;;;10.20;86.10;;;;;;12653537;28;20032;-73
2023/12/12 23:21:09;;;;;;;33.45;29.83;;;10.20;86.30;;;;;;12660925;28;20039;-73
2023/12/12 23:27:11;;;;;;;32.78;28.85;;;10.20;86.20;;;;;;12663362;28;20324;-71
2023/12/12 23:33:13;;;;;;;32.75;29.45;;;10.00;86.30;;;;;;12662940;28;20043;-71
2023/12/12 23:39:15;;;;;;;36.28;30.90;;;10.10;86.40;;;;;;12662729;28;20036;-71
2023/12/12 23:45:17;;;;;;;33.30;28.63;;;9.90;86.40;;;;;;12662604;28;20024;-71
2023/12/12 23:51:18;;;;;;;31.95;28.48;;;10.10;86.80;;;;;;12661107;28;20024;-70
2023/12/12 23:57:27;;;;;;;30.92;27.70;;;10.10;86.70;;;;;;12662346;28;20172;-70
